Time;durP1;ratioP1;P1;durP2;ratioP2;P2;SDS_P1;SDS_P2;PMS_P1;PMS_P2;Temp;Humidity;BMP_temperature;BMP_pressure;BME280_temperature;BME280_humidity;BME280_pressure;Samples;Min_cycle;Max_cycle;Signal;HPM_P1;HPM_P2
2022/09/12 00:00:15;;;;;;;;;;;;;;;;;;1039977;28;3909;-55
2022/09/12 00:01:07;;;;;;;;;;;;;;;;;;1040629;28;4028;-60
2022/09/12 00:01:44;;;;;;;;;;;;;;;;;;1040853;28;4175;-56
2022/09/12 00:02:14;;;;;;;;;;;;;;;;;;1041263;28;3885;-57
2022/09/12 00:02:44;;;;;;;;;;;;;;;;;;1040099;28;3555;-56
2022/09/12 00:03:14;;;;;;;;;;;;;;;;;;1039818;28;4087;-55
2022/09/12 00:03:45;;;;;;;;;;;;;;;;;;1042357;28;3728;-59
2022/09/12 00:04:15;;;;;;;;;;;;;;;;;;1040683;28;4060;-60
2022/09/12 00:04:45;;;;;;;;;;;;;;;;;;1040861;28;3802;-57
2022/09/12 00:05:16;;;;;;;;;;;;;;;;;;1038429;28;3899;-60
2022/09/12 00:05:46;;;;;;;;;;;;;;;;;;1042220;28;3861;-58
2022/09/12 00:06:18;;;;;;;;;;;;;;;;;;1039256;28;4093;-61
2022/09/12 00:06:48;;;;;;;;;;;;;;;;;;1041268;28;3051;-60
2022/09/12 00:07:18;;;;;;;;;;;;;;;;;;1040997;28;3893;-58
2022/09/12 00:07:49;;;;;;;;;;;;;;;;;;1040849;28;3171;-55
2022/09/12 00:08:19;;;;;;;;;;;;;;;;;;1038706;28;4151;-61
2022/09/12 00:08:50;;;;;;;;;;;;;;;;;;1041790;28;2582;-57
2022/09/12 00:09:20;;;;;;;;;;;;;;;;;;1040276;28;4190;-58
2022/09/12 00:09:51;;;;;;;;;;;;;;;;;;1041426;28;3346;-61
2022/09/12 00:10:21;;;;;;;;;;;;;;;;;;1040011;28;4188;-59
2022/09/12 00:10:51;;;;;;;;;;;;;;;;;;1040620;28;3861;-57
2022/09/12 00:11:22;;;;;;;;;;;;;;;;;;1039993;28;3880;-61
2022/09/12 00:11:52;;;;;;;;;;;;;;;;;;1041624;28;3674;-55
2022/09/12 00:12:23;;;;;;;;;;;;;;;;;;1039934;28;4171;-57
2022/09/12 00:12:53;;;;;;;;;;;;;;;;;;1045140;28;3977;-58
2022/09/12 00:13:23;;;;;;;;;;;;;;;;;;1043191;28;3863;-56
2022/09/12 00:13:55;;;;;;;;;;;;;;;;;;1044895;28;3679;-58
2022/09/12 00:14:25;;;;;;;;;;;;;;;;;;1043242;28;3944;-57
2022/09/12 00:14:55;;;;;;;;;;;;;;;;;;1041099;28;3943;-55
2022/09/12 00:15:25;;;;;;;;;;;;;;;;;;1038173;28;3854;-58
2022/09/12 00:15:56;;;;;;;;;;;;;;;;;;1039697;28;4124;-59
2022/09/12 00:16:28;;;;;;;;;;;;;;;;;;1039580;28;4322;-54
2022/09/12 00:16:58;;;;;;;;;;;;;;;;;;1039877;28;3849;-58
2022/09/12 00:17:29;;;;;;;;;;;;;;;;;;1039791;28;3464;-56
2022/09/12 00:17:59;;;;;;;;;;;;;;;;;;1040804;28;4102;-55
2022/09/12 00:18:29;;;;;;;;;;;;;;;;;;1039971;28;3685;-62
2022/09/12 00:19:00;;;;;;;;;;;;;;;;;;1040243;28;4143;-62
2022/09/12 00:19:30;;;;;;;;;;;;;;;;;;1041037;28;3331;-60
2022/09/12 00:20:01;;;;;;;;;;;;;;;;;;1041514;28;4070;-57
2022/09/12 00:20:32;;;;;;;;;;;;;;;;;;1041388;28;3926;-61
2022/09/12 00:21:03;;;;;;;;;;;;;;;;;;1041896;28;4260;-60
2022/09/12 00:21:34;;;;;;;;;;;;;;;;;;1040434;28;3366;-63
2022/09/12 00:22:04;;;;;;;;;;;;;;;;;;1038738;28;3939;-54
2022/09/12 00:22:35;;;;;;;;;;;;;;;;;;1042654;28;2894;-60
2022/09/12 00:23:05;;;;;;;;;;;;;;;;;;1045111;28;4060;-57
2022/09/12 00:23:36;;;;;;;;;;;;;;;;;;1045223;28;2935;-58
2022/09/12 00:24:06;;;;;;;;;;;;;;;;;;1040193;28;4081;-61
2022/09/12 00:24:39;;;;;;;;;;;;;;;;;;1040941;28;3719;-59
2022/09/12 00:25:10;;;;;;;;;;;;;;;;;;1041275;28;4108;-57
2022/09/12 00:25:41;;;;;;;;;;;;;;;;;;1041496;28;3847;-59
2022/09/12 00:26:12;;;;;;;;;;;;;;;;;;1041488;28;4062;-60
2022/09/12 00:26:42;;;;;;;;;;;;;;;;;;1041313;28;3692;-59
2022/09/12 00:27:12;;;;;;;;;;;;;;;;;;1040561;28;3838;-59
2022/09/12 00:27:42;;;;;;;;;;;;;;;;;;1041326;28;3745;-55
2022/09/12 00:28:14;;;;;;;;;;;;;;;;;;1040024;28;3815;-60
2022/09/12 00:28:45;;;;;;;;;;;;;;;;;;1040298;28;3742;-59
2022/09/12 00:29:16;;;;;;;;;;;;;;;;;;1039230;28;4124;-57
2022/09/12 00:29:46;;;;;;;;;;;;;;;;;;1040072;28;3667;-57
2022/09/12 00:30:16;;;;;;;;;;;;;;;;;;1039430;28;4415;-51
2022/09/12 00:30:54;;;;;;;;;;;;;;;;;;1042106;28;2556;-58
2022/09/12 00:31:31;;;;;;;;;;;;;;;;;;1047520;28;4037;-55
2022/09/12 00:32:09;;;;;;;;;;;;;;;;;;1042868;28;4045;-58
2022/09/12 00:32:40;;;;;;;;;;;;;;;;;;1040212;28;3770;-56
2022/09/12 00:33:10;;;;;;;;;;;;;;;;;;1040919;28;3941;-57
2022/09/12 00:33:41;;;;;;;;;;;;;;;;;;1041119;28;3102;-59
2022/09/12 00:34:11;;;;;;;;;;;;;;;;;;1043547;28;3896;-60
2022/09/12 00:34:41;;;;;;;;;;;;;;;;;;1047684;28;3835;-53
2022/09/12 00:35:12;;;;;;;;;;;;;;;;;;1048404;28;4030;-59
2022/09/12 00:35:44;;;;;;;;;;;;;;;;;;1048742;28;3717;-55
2022/09/12 00:36:15;;;;;;;;;;;;;;;;;;1047978;28;4037;-57
2022/09/12 00:36:46;;;;;;;;;;;;;;;;;;1044926;28;2585;-61
2022/09/12 00:37:16;;;;;;;;;;;;;;;;;;1044665;28;3922;-57
2022/09/12 00:37:46;;;;;;;;;;;;;;;;;;1046828;28;3689;-58
2022/09/12 00:38:17;;;;;;;;;;;;;;;;;;1045084;28;4175;-60
2022/09/12 00:38:48;;;;;;;;;;;;;;;;;;1048128;28;2940;-58
2022/09/12 00:39:18;;;;;;;;;;;;;;;;;;1047271;28;3907;-55
2022/09/12 00:39:48;;;;;;;;;;;;;;;;;;1046965;28;3654;-54
2022/09/12 00:40:19;;;;;;;;;;;;;;;;;;1047544;28;4085;-59
2022/09/12 00:40:50;;;;;;;;;;;;;;;;;;1048357;28;3826;-60
2022/09/12 00:41:24;;;;;;;;;;;;;;;;;;1047374;28;4456;-58
2022/09/12 00:41:55;;;;;;;;;;;;;;;;;;1046585;28;3773;-62
2022/09/12 00:42:25;;;;;;;;;;;;;;;;;;1040184;28;4030;-60
2022/09/12 00:42:55;;;;;;;;;;;;;;;;;;1040014;28;3708;-61
2022/09/12 00:43:40;;;;;;;;;;;;;;;;;;1040581;28;4004;-58
2022/09/12 00:44:10;;;;;;;;;;;;;;;;;;1037505;28;4098;-58
2022/09/12 00:44:42;;;;;;;;;;;;;;;;;;1044203;28;3690;-55
2022/09/12 00:45:22;;;;;;;;;;;;;;;;;;1047441;28;3965;-59
2022/09/12 00:45:53;;;;;;;;;;;;;;;;;;1049599;28;3778;-56
2022/09/12 00:46:33;;;;;;;;;;;;;;;;;;1048306;28;3860;-59
2022/09/12 00:47:05;;;;;;;;;;;;;;;;;;1046050;28;3935;-59
2022/09/12 00:47:35;;;;;;;;;;;;;;;;;;1046971;28;2007;-59
2022/09/12 00:48:13;;;;;;;;;;;;;;;;;;1047327;28;3911;-58
2022/09/12 00:49:04;;;;;;;;;;;;;;;;;;1048661;28;3791;-56
2022/09/12 00:49:41;;;;;;;;;;;;;;;;;;1046989;28;3805;-59
2022/09/12 00:50:12;;;;;;;;;;;;;;;;;;1043557;28;3904;-55
2022/09/12 00:50:42;;;;;;;;;;;;;;;;;;1047689;28;2707;-58
2022/09/12 00:51:13;;;;;;;;;;;;;;;;;;1040395;28;3908;-57
2022/09/12 00:51:47;;;;;;;;;;;;;;;;;;1044386;28;3672;-59
2022/09/12 00:52:38;;;;;;;;;;;;;;;;;;1038357;28;3884;-59
2022/09/12 00:53:08;;;;;;;;;;;;;;;;;;1042623;28;4009;-59
2022/09/12 00:53:41;;;;;;;;;;;;;;;;;;1044383;28;3406;-62
2022/09/12 00:54:14;;;;;;;;;;;;;;;;;;1047246;28;3981;-57
2022/09/12 00:54:48;;;;;;;;;;;;;;;;;;1047355;28;2779;-58
2022/09/12 00:55:23;;;;;;;;;;;;;;;;;;1047555;28;3944;-54
2022/09/12 00:55:54;;;;;;;;;;;;;;;;;;1047228;28;3795;-56
2022/09/12 00:56:25;;;;;;;;;;;;;;;;;;1047144;28;4091;-57
2022/09/12 00:56:59;;;;;;;;;;;;;;;;;;1047154;28;3940;-59
2022/09/12 00:57:35;;;;;;;;;;;;;;;;;;1043250;28;3982;-57
2022/09/12 00:58:09;;;;;;;;;;;;;;;;;;1041433;28;3904;-57
2022/09/12 00:58:42;;;;;;;;;;;;;;;;;;1040220;28;2920;-59
2022/09/12 00:59:15;;;;;;;;;;;;;;;;;;1041221;28;3815;-55
2022/09/12 00:59:48;;;;;;;;;;;;;;;;;;1046041;28;2841;-58
2022/09/12 01:00:21;;;;;;;;;;;;;;;;;;1047608;28;4051;-59
2022/09/12 01:00:51;;;;;;;;;;;;;;;;;;1047392;28;3596;-56
2022/09/12 01:01:21;;;;;;;;;;;;;;;;;;1047076;28;4048;-53
2022/09/12 01:01:52;;;;;;;;;;;;;;;;;;1046760;28;3881;-60
2022/09/12 01:02:23;;;;;;;;;;;;;;;;;;1045872;28;3922;-57
2022/09/12 01:03:02;;;;;;;;;;;;;;;;;;1051626;28;3608;-60
2022/09/12 01:03:33;;;;;;;;;;;;;;;;;;1050032;28;5325;-58
2022/09/12 01:04:03;;;;;;;;;;;;;;;;;;1050814;28;3960;-61
2022/09/12 01:04:36;;;;;;;;;;;;;;;;;;1049328;28;3091;-60
2022/09/12 01:05:06;;;;;;;;;;;;;;;;;;1045048;28;3958;-60
2022/09/12 01:05:39;;;;;;;;;;;;;;;;;;1044877;28;2628;-60
2022/09/12 01:06:13;;;;;;;;;;;;;;;;;;1043982;28;3951;-60
2022/09/12 01:06:43;;;;;;;;;;;;;;;;;;1045904;28;3666;-58
2022/09/12 01:07:14;;;;;;;;;;;;;;;;;;1048527;28;4028;-57
2022/09/12 01:07:47;;;;;;;;;;;;;;;;;;1046681;28;3807;-58
2022/09/12 01:08:18;;;;;;;;;;;;;;;;;;1045145;28;3911;-58
2022/09/12 01:08:49;;;;;;;;;;;;;;;;;;1042641;28;3790;-60
2022/09/12 01:09:21;;;;;;;;;;;;;;;;;;1041819;28;4086;-59
2022/09/12 01:09:52;;;;;;;;;;;;;;;;;;1036307;28;3611;-57
2022/09/12 01:10:22;;;;;;;;;;;;;;;;;;1041229;28;4059;-59
2022/09/12 01:10:53;;;;;;;;;;;;;;;;;;1042009;28;3004;-59
2022/09/12 01:11:25;;;;;;;;;;;;;;;;;;1043368;28;4231;-60
2022/09/12 01:11:55;;;;;;;;;;;;;;;;;;1047180;28;4075;-59
2022/09/12 01:12:26;;;;;;;;;;;;;;;;;;1047614;28;3993;-58
2022/09/12 01:12:57;;;;;;;;;;;;;;;;;;1048219;28;5207;-60
2022/09/12 01:13:27;;;;;;;;;;;;;;;;;;1048552;28;6268;-56
2022/09/12 01:13:58;;;;;;;;;;;;;;;;;;1048344;28;3037;-62
2022/09/12 01:14:29;;;;;;;;;;;;;;;;;;1048684;28;4008;-59
2022/09/12 01:14:59;;;;;;;;;;;;;;;;;;1046740;28;3884;-55
2022/09/12 01:15:30;;;;;;;;;;;;;;;;;;1047875;28;3818;-62
2022/09/12 01:16:04;;;;;;;;;;;;;;;;;;1047746;28;4077;-58
2022/09/12 01:16:36;;;;;;;;;;;;;;;;;;1047547;28;3743;-57
2022/09/12 01:17:06;;;;;;;;;;;;;;;;;;1045630;28;4067;-59
2022/09/12 01:17:47;;;;;;;;;;;;;;;;;;1046149;28;3444;-58
2022/09/12 01:18:28;;;;;;;;;;;;;;;;;;1043549;28;4028;-61
2022/09/12 01:18:59;;;;;;;;;;;;;;;;;;1047055;28;4021;-57
2022/09/12 01:19:45;;;;;;;;;;;;;;;;;;1047844;28;3755;-59
2022/09/12 01:20:34;;;;;;;;;;;;;;;;;;1048212;28;4056;-59
2022/09/12 01:21:10;;;;;;;;;;;;;;;;;;1048524;28;3899;-57
2022/09/12 01:21:41;;;;;;;;;;;;;;;;;;1049685;28;3791;-54
2022/09/12 01:22:14;;;;;;;;;;;;;;;;;;1047843;28;3948;-59
2022/09/12 01:22:44;;;;;;;;;;;;;;;;;;1049094;28;3706;-60
2022/09/12 01:23:21;;;;;;;;;;;;;;;;;;1049145;28;3950;-59
2022/09/12 01:24:10;;;;;;;;;;;;;;;;;;1046872;28;3940;-63
2022/09/12 01:24:47;;;;;;;;;;;;;;;;;;1048308;28;3864;-56
2022/09/12 01:25:33;;;;;;;;;;;;;;;;;;1048413;28;4046;-60
2022/09/12 01:26:22;;;;;;;;;;;;;;;;;;1046110;28;3907;-61
2022/09/12 01:26:52;;;;;;;;;;;;;;;;;;1049388;28;3959;-56
2022/09/12 01:27:32;;;;;;;;;;;;;;;;;;1047956;28;3921;-61
2022/09/12 01:28:21;;;;;;;;;;;;;;;;;;1047568;28;3954;-56
2022/09/12 01:28:58;;;;;;;;;;;;;;;;;;1049041;28;3244;-60
2022/09/12 01:29:34;;;;;;;;;;;;;;;;;;1047615;28;3867;-58
2022/09/12 01:30:14;;;;;;;;;;;;;;;;;;1048901;28;3915;-60
2022/09/12 01:30:54;;;;;;;;;;;;;;;;;;1048176;28;3307;-58
2022/09/12 01:31:50;;;;;;;;;;;;;;;;;;1048951;28;3958;-61
2022/09/12 01:32:27;;;;;;;;;;;;;;;;;;1048553;28;3821;-54
2022/09/12 01:33:04;;;;;;;;;;;;;;;;;;1046190;28;4146;-56
2022/09/12 01:33:37;;;;;;;;;;;;;;;;;;1050675;28;3465;-57
2022/09/12 01:34:21;;;;;;;;;;;;;;;;;;1046292;28;4512;-59
2022/09/12 01:35:02;;;;;;;;;;;;;;;;;;1048658;28;3051;-56
2022/09/12 01:35:40;;;;;;;;;;;;;;;;;;1044491;28;3703;-60
2022/09/12 01:36:16;;;;;;;;;;;;;;;;;;1044817;28;4045;-57
2022/09/12 01:36:49;;;;;;;;;;;;;;;;;;1045565;28;3618;-58
2022/09/12 01:37:27;;;;;;;;;;;;;;;;;;1045610;28;3853;-60
2022/09/12 01:38:06;;;;;;;;;;;;;;;;;;1046911;28;3636;-60
2022/09/12 01:38:39;;;;;;;;;;;;;;;;;;1048320;28;3874;-56
2022/09/12 01:39:19;;;;;;;;;;;;;;;;;;1046748;28;4097;-57
2022/09/12 01:40:02;;;;;;;;;;;;;;;;;;1043977;28;3701;-59
2022/09/12 01:40:38;;;;;;;;;;;;;;;;;;1047637;28;3864;-60
2022/09/12 01:41:23;;;;;;;;;;;;;;;;;;1052360;28;3863;-56
2022/09/12 01:41:58;;;;;;;;;;;;;;;;;;1050660;28;3726;-57
2022/09/12 01:42:40;;;;;;;;;;;;;;;;;;1048813;28;3898;-57
2022/09/12 01:43:17;;;;;;;;;;;;;;;;;;1047169;28;3950;-58
2022/09/12 01:43:53;;;;;;;;;;;;;;;;;;1049200;28;2686;-56
2022/09/12 01:44:27;;;;;;;;;;;;;;;;;;1048678;28;3960;-56
2022/09/12 01:44:58;;;;;;;;;;;;;;;;;;1048125;28;3903;-58
2022/09/12 01:45:48;;;;;;;;;;;;;;;;;;1050907;28;3891;-58
2022/09/12 01:46:39;;;;;;;;;;;;;;;;;;1046792;28;3959;-59
2022/09/12 01:47:21;;;;;;;;;;;;;;;;;;1030271;28;4250;-58
2022/09/12 01:48:14;;;;;;;;;;;;;;;;;;1033597;28;3733;-54
2022/09/12 01:48:55;;;;;;;;;;;;;;;;;;1038304;28;4084;-59
2022/09/12 01:49:31;;;;;;;;;;;;;;;;;;1044106;28;4562;-59
2022/09/12 01:50:05;;;;;;;;;;;;;;;;;;1042946;28;4009;-59
2022/09/12 01:50:39;;;;;;;;;;;;;;;;;;1042280;28;3152;-57
2022/09/12 01:51:16;;;;;;;;;;;;;;;;;;1045125;28;4037;-57
2022/09/12 01:51:56;;;;;;;;;;;;;;;;;;1047578;28;3743;-60
2022/09/12 01:52:44;;;;;;;;;;;;;;;;;;1047308;28;3825;-57
2022/09/12 01:53:37;;;;;;;;;;;;;;;;;;1046259;28;3887;-58
2022/09/12 01:54:19;;;;;;;;;;;;;;;;;;1047885;28;4013;-58
2022/09/12 01:54:53;;;;;;;;;;;;;;;;;;1044089;28;2982;-56
2022/09/12 01:55:26;;;;;;;;;;;;;;;;;;1043496;28;4173;-57
2022/09/12 01:56:04;;;;;;;;;;;;;;;;;;1041926;28;3523;-55
2022/09/12 01:56:37;;;;;;;;;;;;;;;;;;1047072;28;3881;-60
2022/09/12 01:57:10;;;;;;;;;;;;;;;;;;1050941;28;3910;-60
2022/09/12 01:57:47;;;;;;;;;;;;;;;;;;1041020;28;3218;-59
2022/09/12 01:58:20;;;;;;;;;;;;;;;;;;1040608;28;4052;-58
2022/09/12 01:58:58;;;;;;;;;;;;;;;;;;1040342;28;4052;-60
2022/09/12 01:59:32;;;;;;;;;;;;;;;;;;1045046;28;4001;-60
2022/09/12 02:00:06;;;;;;;;;;;;;;;;;;1046601;28;4104;-60
2022/09/12 02:00:42;;;;;;;;;;;;;;;;;;1046794;28;2871;-61
2022/09/12 02:01:19;;;;;;;;;;;;;;;;;;1041610;28;4142;-57
2022/09/12 02:01:59;;;;;;;;;;;;;;;;;;1038181;28;4057;-54
2022/09/12 02:02:33;;;;;;;;;;;;;;;;;;1043942;28;4005;-61
2022/09/12 02:03:26;;;;;;;;;;;;;;;;;;1044599;28;4085;-57
2022/09/12 02:04:02;;;;;;;;;;;;;;;;;;1038990;28;3544;-59
2022/09/12 02:04:35;;;;;;;;;;;;;;;;;;1048199;28;5642;-58
2022/09/12 02:05:10;;;;;;;;;;;;;;;;;;1044694;28;4062;-59
2022/09/12 02:06:06;;;;;;;;;;;;;;;;;;1046478;28;3754;-60
2022/09/12 02:06:46;;;;;;;;;;;;;;;;;;1030111;28;3977;-56
2022/09/12 02:07:20;;;;;;;;;;;;;;;;;;1035012;28;4009;-60
2022/09/12 02:07:52;;;;;;;;;;;;;;;;;;1048413;28;3767;-58
2022/09/12 02:08:26;;;;;;;;;;;;;;;;;;1047595;28;3864;-58
2022/09/12 02:09:00;;;;;;;;;;;;;;;;;;1047119;28;3985;-57
2022/09/12 02:09:36;;;;;;;;;;;;;;;;;;1048547;28;4535;-59
2022/09/12 02:10:14;;;;;;;;;;;;;;;;;;1047896;28;3899;-62
2022/09/12 02:10:51;;;;;;;;;;;;;;;;;;1049316;28;3803;-60
2022/09/12 02:11:21;;;;;;;;;;;;;;;;;;1046428;28;3940;-59
2022/09/12 02:11:55;;;;;;;;;;;;;;;;;;1045042;28;3206;-60
2022/09/12 02:12:28;;;;;;;;;;;;;;;;;;1045786;28;3958;-60
2022/09/12 02:13:17;;;;;;;;;;;;;;;;;;1045047;28;3918;-55
2022/09/12 02:13:59;;;;;;;;;;;;;;;;;;1049078;28;3771;-59
2022/09/12 02:14:32;;;;;;;;;;;;;;;;;;1044921;28;3810;-61
2022/09/12 02:15:06;;;;;;;;;;;;;;;;;;1048136;28;3971;-61
2022/09/12 02:15:38;;;;;;;;;;;;;;;;;;1045106;28;3860;-64
2022/09/12 02:16:10;;;;;;;;;;;;;;;;;;1044558;28;4096;-61
2022/09/12 02:16:43;;;;;;;;;;;;;;;;;;1043766;28;4158;-58
2022/09/12 02:17:16;;;;;;;;;;;;;;;;;;1043623;28;4115;-56
2022/09/12 02:17:48;;;;;;;;;;;;;;;;;;1043197;28;3573;-58
2022/09/12 02:18:20;;;;;;;;;;;;;;;;;;1036419;28;3905;-61
2022/09/12 02:18:51;;;;;;;;;;;;;;;;;;1037213;28;3761;-60
2022/09/12 02:19:23;;;;;;;;;;;;;;;;;;1034316;28;4202;-58
2022/09/12 02:19:56;;;;;;;;;;;;;;;;;;1041457;28;3168;-59
2022/09/12 02:20:31;;;;;;;;;;;;;;;;;;1047274;28;3963;-60
2022/09/12 02:21:04;;;;;;;;;;;;;;;;;;1047577;28;4199;-62
2022/09/12 02:21:36;;;;;;;;;;;;;;;;;;1046774;28;3705;-53
2022/09/12 02:22:10;;;;;;;;;;;;;;;;;;1046610;28;4440;-58
2022/09/12 02:22:41;;;;;;;;;;;;;;;;;;1046049;28;3272;-59
2022/09/12 02:23:15;;;;;;;;;;;;;;;;;;1043822;28;4082;-57
2022/09/12 02:23:48;;;;;;;;;;;;;;;;;;1045477;28;2982;-59
2022/09/12 02:24:22;;;;;;;;;;;;;;;;;;1041000;28;4040;-60
2022/09/12 02:24:56;;;;;;;;;;;;;;;;;;1042341;28;3781;-60
2022/09/12 02:25:27;;;;;;;;;;;;;;;;;;1045191;28;3762;-62
2022/09/12 02:26:01;;;;;;;;;;;;;;;;;;1045867;28;3631;-63
2022/09/12 02:26:34;;;;;;;;;;;;;;;;;;1044541;28;3808;-58
2022/09/12 02:27:10;;;;;;;;;;;;;;;;;;1040105;28;4217;-56
2022/09/12 02:27:49;;;;;;;;;;;;;;;;;;1040281;28;3722;-57
2022/09/12 02:28:24;;;;;;;;;;;;;;;;;;1042479;28;3981;-56
2022/09/12 02:28:55;;;;;;;;;;;;;;;;;;1045951;28;4147;-54
2022/09/12 02:29:26;;;;;;;;;;;;;;;;;;1047560;28;3899;-63
2022/09/12 02:29:56;;;;;;;;;;;;;;;;;;1047982;28;2542;-60
2022/09/12 02:30:30;;;;;;;;;;;;;;;;;;1048210;28;3955;-59
2022/09/12 02:31:18;;;;;;;;;;;;;;;;;;1047567;28;4087;-59
2022/09/12 02:31:53;;;;;;;;;;;;;;;;;;1048550;28;3801;-50
2022/09/12 02:32:28;;;;;;;;;;;;;;;;;;1047146;28;3906;-62
2022/09/12 02:33:06;;;;;;;;;;;;;;;;;;1046213;28;3971;-58
2022/09/12 02:33:47;;;;;;;;;;;;;;;;;;1048000;28;3794;-58
2022/09/12 02:34:17;;;;;;;;;;;;;;;;;;1049480;28;4087;-60
2022/09/12 02:34:58;;;;;;;;;;;;;;;;;;1046152;28;2956;-58
2022/09/12 02:35:36;;;;;;;;;;;;;;;;;;1043864;28;3853;-61
2022/09/12 02:36:12;;;;;;;;;;;;;;;;;;1043921;28;4075;-57
2022/09/12 02:36:43;;;;;;;;;;;;;;;;;;1042750;28;2077;-57
2022/09/12 02:37:22;;;;;;;;;;;;;;;;;;1044895;28;3857;-55
2022/09/12 02:38:07;;;;;;;;;;;;;;;;;;1043569;28;3122;-60
2022/09/12 02:38:45;;;;;;;;;;;;;;;;;;1043834;28;3939;-59
2022/09/12 02:39:20;;;;;;;;;;;;;;;;;;1043294;28;4044;-57
2022/09/12 02:39:53;;;;;;;;;;;;;;;;;;1046874;28;2915;-60
2022/09/12 02:40:24;;;;;;;;;;;;;;;;;;1047581;28;4072;-60
2022/09/12 02:40:54;;;;;;;;;;;;;;;;;;1047251;28;4200;-58
2022/09/12 02:41:25;;;;;;;;;;;;;;;;;;1046554;28;4015;-57
2022/09/12 02:41:57;;;;;;;;;;;;;;;;;;1047385;28;3237;-62
2022/09/12 02:42:28;;;;;;;;;;;;;;;;;;1048501;28;3879;-54
2022/09/12 02:42:58;;;;;;;;;;;;;;;;;;1049271;28;4009;-55
2022/09/12 02:43:29;;;;;;;;;;;;;;;;;;1048665;28;4374;-60
2022/09/12 02:43:59;;;;;;;;;;;;;;;;;;1048421;28;3959;-58
2022/09/12 02:44:31;;;;;;;;;;;;;;;;;;1048847;28;2944;-55
2022/09/12 02:45:02;;;;;;;;;;;;;;;;;;1046990;28;4011;-56
2022/09/12 02:45:34;;;;;;;;;;;;;;;;;;1043492;28;3723;-58
2022/09/12 02:46:07;;;;;;;;;;;;;;;;;;1042874;28;3920;-59
2022/09/12 02:46:46;;;;;;;;;;;;;;;;;;1045552;28;3187;-56
2022/09/12 02:47:19;;;;;;;;;;;;;;;;;;1046272;28;3875;-62
2022/09/12 02:47:57;;;;;;;;;;;;;;;;;;1047305;28;3882;-60
2022/09/12 02:48:30;;;;;;;;;;;;;;;;;;1047653;28;3882;-60
2022/09/12 02:49:01;;;;;;;;;;;;;;;;;;1046897;28;3913;-55
2022/09/12 02:49:31;;;;;;;;;;;;;;;;;;1046596;28;3409;-54
2022/09/12 02:50:04;;;;;;;;;;;;;;;;;;1045243;28;3883;-63
2022/09/12 02:50:34;;;;;;;;;;;;;;;;;;1048973;28;3830;-54
2022/09/12 02:51:05;;;;;;;;;;;;;;;;;;1046558;28;3867;-61
2022/09/12 02:51:35;;;;;;;;;;;;;;;;;;1047493;28;2956;-61
2022/09/12 02:52:06;;;;;;;;;;;;;;;;;;1046395;28;4115;-59
2022/09/12 02:52:36;;;;;;;;;;;;;;;;;;1048962;28;3819;-54
2022/09/12 02:53:07;;;;;;;;;;;;;;;;;;1047958;28;3889;-57
2022/09/12 02:53:38;;;;;;;;;;;;;;;;;;1048319;28;2960;-60
2022/09/12 02:54:08;;;;;;;;;;;;;;;;;;1046154;28;3959;-58
2022/09/12 02:54:39;;;;;;;;;;;;;;;;;;1048626;28;3759;-55
2022/09/12 02:55:12;;;;;;;;;;;;;;;;;;1048720;28;3962;-53
2022/09/12 02:55:42;;;;;;;;;;;;;;;;;;1048686;28;3165;-61
2022/09/12 02:56:18;;;;;;;;;;;;;;;;;;1048812;28;3886;-58
2022/09/12 02:56:48;;;;;;;;;;;;;;;;;;1049916;28;3744;-58
2022/09/12 02:57:20;;;;;;;;;;;;;;;;;;1047353;28;3915;-56
2022/09/12 02:57:50;;;;;;;;;;;;;;;;;;1049402;28;3811;-53
2022/09/12 02:58:23;;;;;;;;;;;;;;;;;;1045874;28;4374;-61
2022/09/12 02:58:55;;;;;;;;;;;;;;;;;;1048943;28;4150;-59
2022/09/12 02:59:25;;;;;;;;;;;;;;;;;;1048166;28;4053;-59
2022/09/12 02:59:56;;;;;;;;;;;;;;;;;;1047880;28;3094;-55
2022/09/12 03:00:29;;;;;;;;;;;;;;;;;;1047374;28;4036;-59
2022/09/12 03:01:24;;;;;;;;;;;;;;;;;;1042923;28;3939;-64
2022/09/12 03:02:14;;;;;;;;;;;;;;;;;;1044737;28;4286;-60
2022/09/12 03:02:54;;;;;;;;;;;;;;;;;;1046601;28;3846;-57
2022/09/12 03:03:24;;;;;;;;;;;;;;;;;;1047952;28;3968;-61
2022/09/12 03:04:03;;;;;;;;;;;;;;;;;;1044552;28;2759;-59
2022/09/12 03:04:51;;;;;;;;;;;;;;;;;;1044756;28;3980;-56
2022/09/12 03:05:22;;;;;;;;;;;;;;;;;;1044114;28;4035;-57
2022/09/12 03:06:00;;;;;;;;;;;;;;;;;;1048390;28;3910;-58
2022/09/12 03:06:42;;;;;;;;;;;;;;;;;;1048325;28;4080;-57
2022/09/12 03:07:24;;;;;;;;;;;;;;;;;;1048102;28;4039;-59
2022/09/12 03:08:17;;;;;;;;;;;;;;;;;;1046823;28;3935;-56
2022/09/12 03:09:07;;;;;;;;;;;;;;;;;;1031664;28;4024;-58
2022/09/12 03:09:57;;;;;;;;;;;;;;;;;;1045018;28;3884;-56
2022/09/12 03:10:43;;;;;;;;;;;;;;;;;;1046120;28;3661;-57
2022/09/12 03:11:16;;;;;;;;;;;;;;;;;;1046859;28;4081;-57
2022/09/12 03:12:01;;;;;;;;;;;;;;;;;;1047003;28;2957;-59
2022/09/12 03:12:31;;;;;;;;;;;;;;;;;;1048334;28;4125;-60
2022/09/12 03:13:15;;;;;;;;;;;;;;;;;;1043704;28;4137;-60
2022/09/12 03:13:55;;;;;;;;;;;;;;;;;;1045266;28;3767;-58
2022/09/12 03:14:32;;;;;;;;;;;;;;;;;;1045293;28;3854;-62
2022/09/12 03:15:09;;;;;;;;;;;;;;;;;;1047030;28;3895;-60
2022/09/12 03:15:43;;;;;;;;;;;;;;;;;;1049106;28;3730;-64
2022/09/12 03:16:28;;;;;;;;;;;;;;;;;;1047297;28;4102;-58
2022/09/12 03:17:11;;;;;;;;;;;;;;;;;;1047033;28;4267;-61
2022/09/12 03:18:01;;;;;;;;;;;;;;;;;;1048345;28;3704;-57
2022/09/12 03:18:47;;;;;;;;;;;;;;;;;;1038078;28;3977;-58
2022/09/12 03:19:24;;;;;;;;;;;;;;;;;;1045503;28;4041;-58
2022/09/12 03:20:00;;;;;;;;;;;;;;;;;;1048530;28;3491;-58
2022/09/12 03:20:45;;;;;;;;;;;;;;;;;;1047962;28;3853;-56
2022/09/12 03:21:25;;;;;;;;;;;;;;;;;;1046643;28;4034;-59
2022/09/12 03:22:14;;;;;;;;;;;;;;;;;;1043281;28;3734;-60
2022/09/12 03:22:55;;;;;;;;;;;;;;;;;;1046700;28;3983;-58
2022/09/12 03:23:32;;;;;;;;;;;;;;;;;;1044206;28;3756;-54
2022/09/12 03:24:02;;;;;;;;;;;;;;;;;;1046813;28;3975;-57
2022/09/12 03:24:36;;;;;;;;;;;;;;;;;;1047415;28;3681;-58
2022/09/12 03:25:13;;;;;;;;;;;;;;;;;;1044131;28;3926;-60
2022/09/12 03:25:48;;;;;;;;;;;;;;;;;;1039930;28;4058;-59
2022/09/12 03:26:22;;;;;;;;;;;;;;;;;;1038330;28;4158;-60
2022/09/12 03:26:56;;;;;;;;;;;;;;;;;;1041186;28;3961;-60
2022/09/12 03:27:30;;;;;;;;;;;;;;;;;;1043173;28;4183;-59
2022/09/12 03:28:08;;;;;;;;;;;;;;;;;;1047954;28;3903;-61
2022/09/12 03:28:39;;;;;;;;;;;;;;;;;;1048392;28;3122;-56
2022/09/12 03:29:10;;;;;;;;;;;;;;;;;;1045926;28;4350;-60
2022/09/12 03:29:41;;;;;;;;;;;;;;;;;;1044340;28;3635;-60
2022/09/12 03:30:11;;;;;;;;;;;;;;;;;;1043491;28;4130;-62
2022/09/12 03:30:43;;;;;;;;;;;;;;;;;;1043620;28;3307;-60
2022/09/12 03:31:26;;;;;;;;;;;;;;;;;;1041657;28;4095;-52
2022/09/12 03:32:04;;;;;;;;;;;;;;;;;;1041362;28;4051;-58
2022/09/12 03:32:48;;;;;;;;;;;;;;;;;;1041213;28;3844;-59
2022/09/12 03:33:20;;;;;;;;;;;;;;;;;;1040938;28;4095;-59
2022/09/12 03:33:51;;;;;;;;;;;;;;;;;;1040849;28;4026;-57
2022/09/12 03:34:22;;;;;;;;;;;;;;;;;;1040343;28;3872;-56
2022/09/12 03:34:52;;;;;;;;;;;;;;;;;;1037867;28;3056;-58
2022/09/12 03:35:23;;;;;;;;;;;;;;;;;;1043501;28;4713;-56
2022/09/12 03:35:54;;;;;;;;;;;;;;;;;;1046639;28;4437;-60
2022/09/12 03:36:26;;;;;;;;;;;;;;;;;;1049598;28;3799;-56
2022/09/12 03:36:58;;;;;;;;;;;;;;;;;;1041095;28;3732;-55
2022/09/12 03:37:28;;;;;;;;;;;;;;;;;;1039473;28;3790;-58
2022/09/12 03:37:58;;;;;;;;;;;;;;;;;;1033374;28;3934;-59
2022/09/12 03:38:29;;;;;;;;;;;;;;;;;;1038172;28;3769;-60
2022/09/12 03:38:59;;;;;;;;;;;;;;;;;;1039317;28;3906;-60
2022/09/12 03:39:29;;;;;;;;;;;;;;;;;;1039429;28;3721;-58
2022/09/12 03:40:00;;;;;;;;;;;;;;;;;;1039473;28;4300;-60
2022/09/12 03:40:30;;;;;;;;;;;;;;;;;;1042304;28;3577;-60
2022/09/12 03:41:00;;;;;;;;;;;;;;;;;;1038534;28;4001;-63
2022/09/12 03:41:31;;;;;;;;;;;;;;;;;;1041726;28;2983;-62
2022/09/12 03:42:01;;;;;;;;;;;;;;;;;;1038193;28;4419;-60
2022/09/12 03:42:31;;;;;;;;;;;;;;;;;;1039180;28;3887;-64
2022/09/12 03:43:02;;;;;;;;;;;;;;;;;;1040008;28;3824;-58
2022/09/12 03:43:33;;;;;;;;;;;;;;;;;;1041290;28;3751;-55
2022/09/12 03:44:04;;;;;;;;;;;;;;;;;;1039832;28;4346;-63
2022/09/12 03:44:34;;;;;;;;;;;;;;;;;;1040913;28;3979;-61
2022/09/12 03:45:05;;;;;;;;;;;;;;;;;;1040011;28;3927;-56
2022/09/12 03:45:36;;;;;;;;;;;;;;;;;;1040854;28;3753;-59
2022/09/12 03:46:06;;;;;;;;;;;;;;;;;;1040022;28;3931;-56
2022/09/12 03:46:43;;;;;;;;;;;;;;;;;;1041574;28;3672;-61
2022/09/12 03:47:13;;;;;;;;;;;;;;;;;;1039319;28;3991;-57
2022/09/12 03:47:43;;;;;;;;;;;;;;;;;;1041283;28;3590;-61
2022/09/12 03:48:13;;;;;;;;;;;;;;;;;;1037515;28;4110;-56
2022/09/12 03:48:44;;;;;;;;;;;;;;;;;;1041320;28;3731;-59
2022/09/12 03:49:14;;;;;;;;;;;;;;;;;;1037093;28;4074;-58
2022/09/12 03:49:45;;;;;;;;;;;;;;;;;;1042326;28;3920;-56
2022/09/12 03:50:16;;;;;;;;;;;;;;;;;;1036763;28;3894;-59
2022/09/12 03:50:47;;;;;;;;;;;;;;;;;;1040177;28;2895;-59
2022/09/12 03:51:17;;;;;;;;;;;;;;;;;;1038956;28;4081;-57
2022/09/12 03:51:47;;;;;;;;;;;;;;;;;;1041520;28;3781;-58
2022/09/12 03:52:18;;;;;;;;;;;;;;;;;;1038056;28;4031;-61
2022/09/12 03:52:48;;;;;;;;;;;;;;;;;;1041034;28;3830;-57
2022/09/12 03:53:18;;;;;;;;;;;;;;;;;;1038294;28;4043;-59
2022/09/12 03:53:48;;;;;;;;;;;;;;;;;;1042038;28;3590;-57
2022/09/12 03:54:19;;;;;;;;;;;;;;;;;;1039466;28;3923;-57
2022/09/12 03:54:49;;;;;;;;;;;;;;;;;;1042409;28;3934;-61
2022/09/12 03:55:19;;;;;;;;;;;;;;;;;;1036500;28;3886;-57
2022/09/12 03:55:50;;;;;;;;;;;;;;;;;;1037908;28;3724;-59
2022/09/12 03:56:20;;;;;;;;;;;;;;;;;;1034722;28;4105;-59
2022/09/12 03:56:50;;;;;;;;;;;;;;;;;;1045082;28;3765;-62
2022/09/12 03:57:21;;;;;;;;;;;;;;;;;;1047848;28;3923;-60
2022/09/12 03:57:52;;;;;;;;;;;;;;;;;;1049176;28;3651;-61
2022/09/12 03:58:23;;;;;;;;;;;;;;;;;;1047471;28;3917;-59
2022/09/12 03:58:54;;;;;;;;;;;;;;;;;;1037934;28;3505;-57